createdAt,value
2022-08-22T00:03:09.861Z,26.57
2022-08-22T00:05:56.492Z,26.49
2022-08-22T00:15:57.765Z,26.41
2022-08-22T00:25:59.095Z,26.44
2022-08-22T00:36:00.362Z,26.44
2022-08-22T00:46:01.625Z,26.40
2022-08-22T01:06:31.878Z,26.39
2022-08-22T01:16:33.134Z,26.36
2022-08-22T01:26:34.408Z,26.38
2022-08-22T01:36:38.198Z,26.35
2022-08-22T01:46:39.473Z,26.34
2022-08-22T01:56:40.762Z,26.34
2022-08-22T02:06:42.030Z,26.34
2022-08-22T02:16:43.296Z,26.25
2022-08-22T02:26:44.547Z,26.30
2022-08-22T02:36:45.879Z,26.32
2022-08-22T02:46:47.179Z,26.28
2022-08-22T02:56:48.429Z,26.24
2022-08-22T03:06:49.666Z,26.23
2022-08-22T03:16:50.921Z,26.23
2022-08-22T03:26:52.194Z,26.15
2022-08-22T03:36:53.451Z,26.14
2022-08-22T03:46:54.732Z,26.14
2022-08-22T03:56:58.906Z,26.12
2022-08-22T04:07:01.896Z,26.05
2022-08-22T04:17:03.156Z,25.97
2022-08-22T04:27:04.446Z,25.88
2022-08-22T04:37:05.741Z,24.85
2022-08-22T04:47:07.015Z,24.68
2022-08-22T04:57:08.275Z,24.89
2022-08-22T05:07:09.590Z,24.22
2022-08-22T05:17:10.869Z,23.94
2022-08-22T05:27:16.748Z,24.00
2022-08-22T05:37:20.432Z,24.21
2022-08-22T05:47:21.747Z,24.25
2022-08-22T05:57:23.017Z,23.89
2022-08-22T06:07:24.300Z,23.77
2022-08-22T06:17:25.600Z,23.76
2022-08-22T06:27:26.930Z,23.94
2022-08-22T06:37:32.663Z,23.65
2022-08-22T06:47:35.813Z,23.86
2022-08-22T06:57:37.586Z,24.17
2022-08-22T07:07:39.013Z,24.27
2022-08-22T07:27:55.994Z,24.12
2022-08-22T07:38:00.741Z,24.28
2022-08-22T07:48:02.756Z,24.93
2022-08-22T07:58:08.731Z,25.26
2022-08-22T08:08:15.548Z,25.46
2022-08-22T08:18:21.684Z,25.24
2022-08-22T08:28:23.141Z,25.52
2022-08-22T08:38:24.661Z,25.60
2022-08-22T08:48:26.069Z,25.65
2022-08-22T08:58:27.499Z,25.71
2022-08-22T09:08:28.916Z,25.68
2022-08-22T09:18:30.454Z,25.74
2022-08-22T09:28:31.838Z,25.73
2022-08-22T09:38:33.125Z,25.81
2022-08-22T09:48:36.168Z,25.80
2022-08-22T09:58:40.824Z,25.82
2022-08-22T10:08:46.062Z,25.82
2022-08-22T10:18:53.751Z,25.82
2022-08-22T10:28:56.949Z,25.86
2022-08-22T10:38:58.326Z,25.89
2022-08-22T10:49:00.320Z,25.90
2022-08-22T10:59:09.342Z,25.90
2022-08-22T11:09:10.716Z,25.90
2022-08-22T11:19:14.704Z,26.01
2022-08-22T11:29:17.075Z,26.10
2022-08-22T11:39:19.680Z,26.13
2022-08-22T11:49:21.098Z,26.20
2022-08-22T11:59:28.433Z,26.18
2022-08-22T12:09:29.961Z,26.21
2022-08-22T12:19:32.752Z,26.23
2022-08-22T12:29:39.985Z,26.26
2022-08-22T12:39:46.649Z,26.26
2022-08-22T12:49:55.815Z,26.27
2022-08-22T13:00:03.794Z,26.30
2022-08-22T13:10:11.798Z,26.33
2022-08-22T13:20:20.808Z,26.35
2022-08-22T13:30:26.274Z,26.31
2022-08-22T13:40:34.764Z,26.37
2022-08-22T13:50:53.107Z,26.37
2022-08-22T14:00:58.073Z,26.41
2022-08-22T14:11:02.021Z,26.40
2022-08-22T14:21:10.816Z,26.39
2022-08-22T14:31:18.075Z,26.47
2022-08-22T14:41:24.926Z,26.44
2022-08-22T14:51:32.937Z,26.41
2022-08-22T15:01:40.930Z,26.39
2022-08-22T15:11:46.896Z,26.41
2022-08-22T15:21:55.271Z,26.43
2022-08-22T15:42:13.624Z,26.41
2022-08-22T15:52:19.533Z,26.43
2022-08-22T16:02:21.492Z,26.41
2022-08-22T16:12:23.066Z,26.41
2022-08-22T16:22:24.473Z,26.41
2022-08-22T16:32:25.990Z,26.42
2022-08-22T16:42:27.277Z,26.44
2022-08-22T16:52:28.589Z,26.45
2022-08-22T17:02:30.073Z,26.42
2022-08-22T17:12:31.461Z,26.42
2022-08-22T17:22:32.847Z,26.42
2022-08-22T17:32:37.976Z,26.42
2022-08-22T17:42:45.839Z,26.43
2022-08-22T17:52:56.706Z,26.45
2022-08-22T18:03:02.143Z,26.45
2022-08-22T18:13:10.227Z,26.38
2022-08-22T18:23:21.498Z,26.37
2022-08-22T18:43:51.962Z,26.35
2022-08-22T18:53:53.227Z,26.36
2022-08-22T19:03:54.625Z,26.34
2022-08-22T19:13:56.157Z,26.35
2022-08-22T19:23:57.583Z,26.35
2022-08-22T19:33:59.324Z,26.34
2022-08-22T19:44:00.742Z,26.34
2022-08-22T19:54:02.061Z,26.42
2022-08-22T20:04:03.470Z,26.38
2022-08-22T20:14:04.797Z,26.34
2022-08-22T20:24:06.257Z,26.32
2022-08-22T20:34:07.698Z,26.34
2022-08-22T20:44:08.982Z,26.35
2022-08-22T20:54:19.104Z,26.34
2022-08-22T21:04:20.466Z,26.33
2022-08-22T21:14:21.845Z,26.32
2022-08-22T21:24:23.274Z,26.32
2022-08-22T21:34:27.242Z,26.31
2022-08-22T21:44:28.509Z,26.33
2022-08-22T21:54:29.759Z,26.31
2022-08-22T22:04:31.108Z,26.29
2022-08-22T22:14:32.354Z,26.29
2022-08-22T22:24:33.653Z,26.26
2022-08-22T22:34:34.902Z,26.27
2022-08-22T22:44:36.140Z,26.28
2022-08-22T22:54:37.446Z,26.25
2022-08-22T23:04:38.839Z,26.26
2022-08-22T23:14:42.720Z,26.24
2022-08-22T23:24:44.022Z,26.23
2022-08-22T23:34:47.707Z,26.23
2022-08-22T23:44:48.966Z,26.24
2022-08-22T23:54:51.544Z,26.23
